sensor_id;sensor_type;location;lat;lon;timestamp;P1;durP1;ratioP1;P2;durP2;ratioP2
14708;SDS011;7445;50.774;4.944;2023-10-09T12:48:37;13.00;;;9.38;;
14708;SDS011;7445;50.774;4.944;2023-10-09T12:51:03;10.88;;;7.07;;
14708;SDS011;7445;50.774;4.944;2023-10-09T12:53:32;7.97;;;7.13;;
14708;SDS011;7445;50.774;4.944;2023-10-09T12:55:59;13.82;;;7.28;;
14708;SDS011;7445;50.774;4.944;2023-10-09T12:58:25;10.85;;;7.65;;
14708;SDS011;7445;50.774;4.944;2023-10-09T13:00:52;8.82;;;7.93;;
14708;SDS011;7445;50.774;4.944;2023-10-09T13:03:17;11.48;;;9.02;;
14708;SDS011;7445;50.774;4.944;2023-10-09T13:05:44;9.80;;;7.03;;
14708;SDS011;7445;50.774;4.944;2023-10-09T13:08:20;11.02;;;7.45;;
14708;SDS011;7445;50.774;4.944;2023-10-09T13:10:50;9.45;;;8.35;;
14708;SDS011;7445;50.774;4.944;2023-10-09T13:13:27;15.15;;;8.95;;
14708;SDS011;7445;50.774;4.944;2023-10-09T13:16:04;9.38;;;8.20;;
14708;SDS011;7445;50.774;4.944;2023-10-09T13:18:54;10.73;;;7.35;;
14708;SDS011;7445;50.774;4.944;2023-10-09T13:21:25;8.85;;;7.50;;
14708;SDS011;7445;50.774;4.944;2023-10-09T13:23:51;11.80;;;10.43;;
14708;SDS011;7445;50.774;4.944;2023-10-09T13:26:21;13.60;;;8.75;;
14708;SDS011;7445;50.774;4.944;2023-10-09T13:28:55;9.85;;;8.50;;
14708;SDS011;7445;50.774;4.944;2023-10-09T13:31:23;12.38;;;9.38;;
14708;SDS011;7445;50.774;4.944;2023-10-09T13:33:55;9.50;;;7.00;;
14708;SDS011;7445;50.774;4.944;2023-10-09T13:36:25;13.75;;;8.68;;
14708;SDS011;7445;50.774;4.944;2023-10-09T13:39:02;11.88;;;7.90;;
14708;SDS011;7445;50.774;4.944;2023-10-09T13:41:56;10.85;;;8.15;;
14708;SDS011;7445;50.774;4.944;2023-10-09T13:44:32;13.27;;;9.02;;
14708;SDS011;7445;50.774;4.944;2023-10-09T13:47:00;10.27;;;7.97;;
14708;SDS011;7445;50.774;4.944;2023-10-09T13:49:27;12.10;;;8.70;;
14708;SDS011;7445;50.774;4.944;2023-10-09T13:52:00;10.15;;;8.02;;
14708;SDS011;7445;50.774;4.944;2023-10-09T13:54:27;9.63;;;7.22;;
14708;SDS011;7445;50.774;4.944;2023-10-09T13:56:59;9.50;;;8.60;;
14708;SDS011;7445;50.774;4.944;2023-10-09T13:59:28;12.55;;;9.35;;
14708;SDS011;7445;50.774;4.944;2023-10-09T14:01:55;17.33;;;8.57;;
14708;SDS011;7445;50.774;4.944;2023-10-09T14:04:21;25.48;;;11.95;;
14708;SDS011;7445;50.774;4.944;2023-10-09T14:06:48;10.75;;;8.48;;
14708;SDS011;7445;50.774;4.944;2023-10-09T14:09:17;9.50;;;8.60;;
14708;SDS011;7445;50.774;4.944;2023-10-09T14:12:01;12.52;;;8.57;;
14708;SDS011;7445;50.774;4.944;2023-10-09T14:14:42;17.50;;;11.18;;
14708;SDS011;7445;50.774;4.944;2023-10-09T14:17:15;16.92;;;9.45;;
14708;SDS011;7445;50.774;4.944;2023-10-09T14:19:48;8.23;;;7.43;;
14708;SDS011;7445;50.774;4.944;2023-10-09T14:22:16;12.43;;;7.72;;
14708;SDS011;7445;50.774;4.944;2023-10-09T14:24:43;13.35;;;9.65;;
14708;SDS011;7445;50.774;4.944;2023-10-09T14:27:11;13.07;;;9.35;;
14708;SDS011;7445;50.774;4.944;2023-10-09T14:29:43;14.48;;;9.93;;
14708;SDS011;7445;50.774;4.944;2023-10-09T14:32:12;12.13;;;8.35;;
14708;SDS011;7445;50.774;4.944;2023-10-09T14:34:41;12.10;;;8.40;;
14708;SDS011;7445;50.774;4.944;2023-10-09T14:37:19;22.13;;;10.07;;
14708;SDS011;7445;50.774;4.944;2023-10-09T14:39:45;15.00;;;8.18;;
14708;SDS011;7445;50.774;4.944;2023-10-09T14:42:17;9.38;;;8.02;;
14708;SDS011;7445;50.774;4.944;2023-10-09T14:44:43;10.57;;;9.25;;
14708;SDS011;7445;50.774;4.944;2023-10-09T14:47:12;11.25;;;8.20;;
14708;SDS011;7445;50.774;4.944;2023-10-09T14:49:46;10.77;;;8.63;;
14708;SDS011;7445;50.774;4.944;2023-10-09T14:52:13;12.45;;;10.00;;
14708;SDS011;7445;50.774;4.944;2023-10-09T14:54:44;15.15;;;9.32;;
14708;SDS011;7445;50.774;4.944;2023-10-09T14:57:10;10.00;;;8.88;;
14708;SDS011;7445;50.774;4.944;2023-10-09T14:59:39;14.77;;;9.90;;
14708;SDS011;7445;50.774;4.944;2023-10-09T15:02:06;10.50;;;8.13;;
14708;SDS011;7445;50.774;4.944;2023-10-09T15:04:33;11.43;;;8.65;;
14708;SDS011;7445;50.774;4.944;2023-10-09T15:07:02;10.27;;;8.45;;
14708;SDS011;7445;50.774;4.944;2023-10-09T15:09:32;11.10;;;8.45;;
14708;SDS011;7445;50.774;4.944;2023-10-09T15:12:01;12.82;;;10.27;;
14708;SDS011;7445;50.774;4.944;2023-10-09T15:14:26;12.73;;;9.98;;
14708;SDS011;7445;50.774;4.944;2023-10-09T15:16:52;16.83;;;11.13;;
14708;SDS011;7445;50.774;4.944;2023-10-09T15:19:18;12.85;;;9.57;;
14708;SDS011;7445;50.774;4.944;2023-10-09T15:21:44;24.27;;;12.73;;
14708;SDS011;7445;50.774;4.944;2023-10-09T15:24:13;16.50;;;10.02;;
14708;SDS011;7445;50.774;4.944;2023-10-09T15:26:50;17.33;;;10.25;;
14708;SDS011;7445;50.774;4.944;2023-10-09T15:29:22;25.23;;;11.57;;
14708;SDS011;7445;50.774;4.944;2023-10-09T15:31:54;12.18;;;10.70;;
14708;SDS011;7445;50.774;4.944;2023-10-09T15:34:20;14.13;;;9.77;;
14708;SDS011;7445;50.774;4.944;2023-10-09T15:36:46;23.63;;;13.18;;
14708;SDS011;7445;50.774;4.944;2023-10-09T15:39:16;13.23;;;10.10;;
14708;SDS011;7445;50.774;4.944;2023-10-09T15:41:46;23.42;;;12.55;;
14708;SDS011;7445;50.774;4.944;2023-10-09T15:44:12;11.40;;;9.70;;
14708;SDS011;7445;50.774;4.944;2023-10-09T15:46:41;13.57;;;8.90;;
14708;SDS011;7445;50.774;4.944;2023-10-09T15:49:11;13.07;;;9.82;;
14708;SDS011;7445;50.774;4.944;2023-10-09T15:51:39;14.45;;;9.30;;
14708;SDS011;7445;50.774;4.944;2023-10-09T15:54:05;14.43;;;9.82;;
14708;SDS011;7445;50.774;4.944;2023-10-09T15:56:32;21.88;;;11.20;;
14708;SDS011;7445;50.774;4.944;2023-10-09T15:58:59;22.20;;;11.13;;
14708;SDS011;7445;50.774;4.944;2023-10-09T16:01:25;24.55;;;12.02;;
14708;SDS011;7445;50.774;4.944;2023-10-09T16:03:51;22.35;;;11.80;;
14708;SDS011;7445;50.774;4.944;2023-10-09T16:06:19;16.75;;;11.50;;
14708;SDS011;7445;50.774;4.944;2023-10-09T16:08:46;13.03;;;10.03;;
14708;SDS011;7445;50.774;4.944;2023-10-09T16:11:16;20.45;;;10.60;;
14708;SDS011;7445;50.774;4.944;2023-10-09T16:13:43;24.83;;;11.27;;
14708;SDS011;7445;50.774;4.944;2023-10-09T16:16:12;25.58;;;10.82;;
14708;SDS011;7445;50.774;4.944;2023-10-09T16:18:56;16.77;;;10.33;;
14708;SDS011;7445;50.774;4.944;2023-10-09T16:21:26;20.02;;;10.65;;
14708;SDS011;7445;50.774;4.944;2023-10-09T16:23:55;50.40;;;15.10;;
14708;SDS011;7445;50.774;4.944;2023-10-09T16:26:33;32.80;;;12.68;;
14708;SDS011;7445;50.774;4.944;2023-10-09T16:29:10;22.45;;;11.35;;
14708;SDS011;7445;50.774;4.944;2023-10-09T16:31:38;18.80;;;10.33;;
14708;SDS011;7445;50.774;4.944;2023-10-09T16:34:05;17.50;;;11.80;;
14708;SDS011;7445;50.774;4.944;2023-10-09T16:36:41;14.10;;;9.10;;
14708;SDS011;7445;50.774;4.944;2023-10-09T16:39:07;10.67;;;8.33;;
14708;SDS011;7445;50.774;4.944;2023-10-09T16:41:46;16.23;;;10.73;;
14708;SDS011;7445;50.774;4.944;2023-10-09T16:44:12;16.83;;;11.23;;
14708;SDS011;7445;50.774;4.944;2023-10-09T16:46:42;12.20;;;10.40;;
14708;SDS011;7445;50.774;4.944;2023-10-09T16:49:19;11.90;;;9.67;;
14708;SDS011;7445;50.774;4.944;2023-10-09T16:51:51;16.30;;;11.30;;
14708;SDS011;7445;50.774;4.944;2023-10-09T16:54:21;16.13;;;10.17;;
14708;SDS011;7445;50.774;4.944;2023-10-09T16:57:00;12.07;;;10.43;;
14708;SDS011;7445;50.774;4.944;2023-10-09T16:59:49;13.30;;;10.33;;
14708;SDS011;7445;50.774;4.944;2023-10-09T17:02:35;17.83;;;11.30;;
14708;SDS011;7445;50.774;4.944;2023-10-09T17:05:06;11.67;;;10.50;;
14708;SDS011;7445;50.774;4.944;2023-10-09T17:07:56;12.83;;;10.67;;
14708;SDS011;7445;50.774;4.944;2023-10-09T17:10:25;12.27;;;10.60;;
14708;SDS011;7445;50.774;4.944;2023-10-09T17:12:54;16.27;;;11.67;;
14708;SDS011;7445;50.774;4.944;2023-10-09T17:15:24;22.03;;;13.53;;
14708;SDS011;7445;50.774;4.944;2023-10-09T17:17:58;21.77;;;13.20;;
14708;SDS011;7445;50.774;4.944;2023-10-09T17:20:25;12.90;;;11.60;;
14708;SDS011;7445;50.774;4.944;2023-10-09T17:22:56;19.80;;;10.77;;
14708;SDS011;7445;50.774;4.944;2023-10-09T17:25:29;17.63;;;11.30;;
14708;SDS011;7445;50.774;4.944;2023-10-09T17:27:57;15.13;;;13.17;;
14708;SDS011;7445;50.774;4.944;2023-10-09T17:30:25;16.63;;;12.80;;
14708;SDS011;7445;50.774;4.944;2023-10-09T17:32:54;15.90;;;13.60;;
14708;SDS011;7445;50.774;4.944;2023-10-09T17:35:23;16.23;;;13.57;;
14708;SDS011;7445;50.774;4.944;2023-10-09T17:37:49;14.13;;;12.73;;
14708;SDS011;7445;50.774;4.944;2023-10-09T17:40:15;19.00;;;15.43;;
14708;SDS011;7445;50.774;4.944;2023-10-09T17:42:43;17.07;;;13.77;;
14708;SDS011;7445;50.774;4.944;2023-10-09T17:45:09;17.87;;;14.77;;
14708;SDS011;7445;50.774;4.944;2023-10-09T17:47:38;17.73;;;14.47;;
14708;SDS011;7445;50.774;4.944;2023-10-09T17:50:04;18.90;;;15.37;;
14708;SDS011;7445;50.774;4.944;2023-10-09T17:52:36;16.37;;;13.83;;
14708;SDS011;7445;50.774;4.944;2023-10-09T17:55:02;17.30;;;14.63;;
14708;SDS011;7445;50.774;4.944;2023-10-09T17:57:33;18.40;;;15.37;;
14708;SDS011;7445;50.774;4.944;2023-10-09T17:59:59;14.97;;;13.47;;
14708;SDS011;7445;50.774;4.944;2023-10-09T18:02:25;16.73;;;13.33;;
14708;SDS011;7445;50.774;4.944;2023-10-09T18:04:53;15.87;;;13.30;;
14708;SDS011;7445;50.774;4.944;2023-10-09T18:07:19;14.73;;;13.23;;
14708;SDS011;7445;50.774;4.944;2023-10-09T18:09:46;20.27;;;14.77;;
14708;SDS011;7445;50.774;4.944;2023-10-09T18:12:18;15.53;;;13.87;;
14708;SDS011;7445;50.774;4.944;2023-10-09T18:15:19;14.57;;;13.07;;
14708;SDS011;7445;50.774;4.944;2023-10-09T18:27:47;16.43;;;13.07;;
14708;SDS011;7445;50.774;4.944;2023-10-09T18:30:37;16.60;;;13.43;;
14708;SDS011;7445;50.774;4.944;2023-10-09T18:33:17;15.53;;;13.07;;
14708;SDS011;7445;50.774;4.944;2023-10-09T18:39:03;17.47;;;12.47;;
14708;SDS011;7445;50.774;4.944;2023-10-09T18:42:02;16.13;;;13.37;;
14708;SDS011;7445;50.774;4.944;2023-10-09T18:45:24;15.07;;;13.57;;
14708;SDS011;7445;50.774;4.944;2023-10-09T18:48:34;15.07;;;11.97;;
14708;SDS011;7445;50.774;4.944;2023-10-09T18:51:01;17.23;;;13.17;;
14708;SDS011;7445;50.774;4.944;2023-10-09T19:04:37;19.50;;;14.77;;
14708;SDS011;7445;50.774;4.944;2023-10-09T19:07:07;15.93;;;13.37;;
14708;SDS011;7445;50.774;4.944;2023-10-09T19:13:15;16.60;;;14.50;;
14708;SDS011;7445;50.774;4.944;2023-10-09T19:16:19;16.67;;;14.90;;
14708;SDS011;7445;50.774;4.944;2023-10-09T19:18:59;18.47;;;15.20;;
14708;SDS011;7445;50.774;4.944;2023-10-09T19:31:43;22.53;;;17.20;;
14708;SDS011;7445;50.774;4.944;2023-10-09T19:36:55;22.53;;;18.47;;
14708;SDS011;7445;50.774;4.944;2023-10-09T19:39:33;24.63;;;20.07;;
14708;SDS011;7445;50.774;4.944;2023-10-09T19:42:12;24.23;;;19.47;;
14708;SDS011;7445;50.774;4.944;2023-10-09T19:45:06;23.37;;;19.43;;
14708;SDS011;7445;50.774;4.944;2023-10-09T19:51:06;23.97;;;18.20;;
14708;SDS011;7445;50.774;4.944;2023-10-09T19:53:40;23.27;;;20.30;;
14708;SDS011;7445;50.774;4.944;2023-10-09T19:56:30;21.27;;;19.03;;
14708;SDS011;7445;50.774;4.944;2023-10-09T19:58:57;24.63;;;20.80;;
14708;SDS011;7445;50.774;4.944;2023-10-09T20:01:42;21.57;;;18.83;;
14708;SDS011;7445;50.774;4.944;2023-10-09T20:04:17;26.87;;;20.33;;
14708;SDS011;7445;50.774;4.944;2023-10-09T20:16:23;22.33;;;18.47;;
14708;SDS011;7445;50.774;4.944;2023-10-09T20:19:15;24.53;;;19.27;;
14708;SDS011;7445;50.774;4.944;2023-10-09T20:21:45;21.07;;;18.87;;
14708;SDS011;7445;50.774;4.944;2023-10-09T20:24:21;24.57;;;19.87;;
14708;SDS011;7445;50.774;4.944;2023-10-09T20:26:53;21.57;;;19.07;;
14708;SDS011;7445;50.774;4.944;2023-10-09T20:29:21;22.57;;;20.27;;
14708;SDS011;7445;50.774;4.944;2023-10-09T20:31:48;25.67;;;20.73;;
14708;SDS011;7445;50.774;4.944;2023-10-09T20:34:32;23.60;;;21.13;;
14708;SDS011;7445;50.774;4.944;2023-10-09T20:39:43;25.40;;;20.77;;
14708;SDS011;7445;50.774;4.944;2023-10-09T20:42:17;24.97;;;19.53;;
14708;SDS011;7445;50.774;4.944;2023-10-09T20:48:41;26.47;;;20.63;;
14708;SDS011;7445;50.774;4.944;2023-10-09T20:54:49;24.13;;;20.10;;
14708;SDS011;7445;50.774;4.944;2023-10-09T20:57:18;23.83;;;20.93;;
14708;SDS011;7445;50.774;4.944;2023-10-09T20:59:43;21.27;;;18.13;;
14708;SDS011;7445;50.774;4.944;2023-10-09T21:02:21;21.50;;;17.70;;
14708;SDS011;7445;50.774;4.944;2023-10-09T21:04:47;21.73;;;17.87;;
14708;SDS011;7445;50.774;4.944;2023-10-09T21:07:18;18.33;;;15.67;;
14708;SDS011;7445;50.774;4.944;2023-10-09T21:12:51;19.07;;;16.03;;
14708;SDS011;7445;50.774;4.944;2023-10-09T21:15:22;16.03;;;14.40;;
14708;SDS011;7445;50.774;4.944;2023-10-09T21:17:51;22.90;;;16.23;;
14708;SDS011;7445;50.774;4.944;2023-10-09T21:20:18;20.20;;;15.47;;
14708;SDS011;7445;50.774;4.944;2023-10-09T21:22:48;19.70;;;15.83;;
14708;SDS011;7445;50.774;4.944;2023-10-09T21:25:15;23.07;;;17.00;;
14708;SDS011;7445;50.774;4.944;2023-10-09T21:27:45;16.93;;;15.13;;
14708;SDS011;7445;50.774;4.944;2023-10-09T21:30:13;17.70;;;14.77;;
14708;SDS011;7445;50.774;4.944;2023-10-09T21:32:42;17.67;;;15.57;;
14708;SDS011;7445;50.774;4.944;2023-10-09T21:35:12;17.98;;;16.10;;
14708;SDS011;7445;50.774;4.944;2023-10-09T21:38:03;22.48;;;18.50;;
14708;SDS011;7445;50.774;4.944;2023-10-09T21:40:28;22.33;;;16.20;;
14708;SDS011;7445;50.774;4.944;2023-10-09T21:42:57;18.63;;;16.60;;
14708;SDS011;7445;50.774;4.944;2023-10-09T21:45:25;19.17;;;17.07;;
14708;SDS011;7445;50.774;4.944;2023-10-09T21:47:52;18.90;;;16.57;;
14708;SDS011;7445;50.774;4.944;2023-10-09T21:50:22;22.43;;;15.83;;
14708;SDS011;7445;50.774;4.944;2023-10-09T21:52:48;24.50;;;16.40;;
